Time;durP1;ratioP1;P1;durP2;ratioP2;P2;SDS_P1;SDS_P2;PMS_P1;PMS_P2;Temp;Humidity;BMP_temperature;BMP_pressure;BME280_temperature;BME280_humidity;BME280_pressure;Samples;Min_cycle;Max_cycle;Signal;HPM_P1;HPM_P2
2022/05/07 00:01:47;;;;;;;10.60;7.40;;;;;;;30.77;25.10;98726.06;5064297;28;20032;-78
2022/05/07 00:04:13;;;;;;;10.90;7.97;;;;;;;30.78;25.24;98729.72;5065966;28;20093;-78
2022/05/07 00:06:39;;;;;;;9.10;6.35;;;;;;;31.30;24.41;98726.00;5069134;28;20037;-78
2022/05/07 00:09:05;;;;;;;9.20;6.35;;;;;;;31.74;24.12;98733.06;5066272;28;20085;-78
2022/05/07 00:11:31;;;;;;;10.70;6.88;;;;;;;31.70;24.28;98729.59;5062377;28;20047;-78
2022/05/07 00:13:57;;;;;;;8.98;6.78;;;;;;;32.04;23.41;98731.41;5067003;28;20045;-79
2022/05/07 00:19:07;;;;;;;10.68;6.95;;;;;;;32.13;23.05;98731.41;5065221;28;20720;-79
2022/05/07 00:21:33;;;;;;;11.93;6.93;;;;;;;32.23;22.71;98729.34;5065579;28;20518;-79
2022/05/07 00:24:02;;;;;;;10.30;6.90;;;;;;;32.40;22.52;98722.06;5065455;28;20498;-79
2022/05/07 00:26:28;;;;;;;10.30;7.50;;;;;;;32.54;22.72;98721.44;5064533;28;20447;-78
2022/05/07 00:28:54;;;;;;;10.50;6.55;;;;;;;32.37;23.07;98723.03;5067358;28;20024;-78
2022/05/07 00:31:21;;;;;;;11.63;7.45;;;;;;;32.47;23.10;98716.03;5069957;28;20099;-79
2022/05/07 00:33:47;;;;;;;7.97;5.88;;;;;;;32.43;22.58;98716.22;5070064;28;20491;-79
2022/05/07 00:36:13;;;;;;;8.88;6.50;;;;;;;32.26;22.70;98728.38;5067342;28;20068;-79
2022/05/07 00:38:39;;;;;;;10.25;5.95;;;;;;;32.38;22.64;98721.75;5068602;28;20036;-79
2022/05/07 00:41:05;;;;;;;8.63;6.28;;;;;;;32.41;22.63;98715.91;5070712;28;20071;-79
2022/05/07 00:43:39;;;;;;;7.05;5.70;;;;;;;32.32;22.79;98723.66;5068752;28;20045;-79
2022/05/07 00:46:06;;;;;;;8.07;6.38;;;;;;;32.07;22.92;98721.91;5067624;28;20032;-79
2022/05/07 00:48:33;;;;;;;11.57;7.25;;;;;;;31.79;23.40;98718.25;5049419;28;20036;-79
2022/05/07 00:53:46;;;;;;;12.02;7.95;;;;;;;31.69;23.83;98722.38;5067726;28;20398;-79
2022/05/07 00:56:12;;;;;;;10.07;6.05;;;;;;;32.00;23.13;98714.50;5068922;28;20394;-78
2022/05/07 00:58:39;;;;;;;8.27;6.57;;;;;;;31.79;23.37;98718.25;5069677;28;20040;-79
2022/05/07 01:01:05;;;;;;;9.88;6.32;;;;;;;32.01;23.05;98720.97;5070124;28;20040;-79
2022/05/07 01:03:31;;;;;;;9.20;6.57;;;;;;;32.28;22.96;98709.59;5068734;28;20089;-79
2022/05/07 01:05:59;;;;;;;9.25;6.50;;;;;;;32.33;22.89;98708.16;5067830;28;20147;-79
2022/05/07 01:08:25;;;;;;;9.05;6.57;;;;;;;32.04;23.28;98706.59;5067782;28;20036;-79
2022/05/07 01:10:52;;;;;;;9.70;7.30;;;;;;;32.18;22.63;98708.03;5070546;28;20159;-79
2022/05/07 01:13:22;;;;;;;8.43;6.47;;;;;;;32.30;22.61;98709.91;5067324;28;20040;-79
2022/05/07 01:15:53;;;;;;;9.25;6.50;;;;;;;32.48;22.70;98700.56;5066216;28;20024;-79
2022/05/07 01:18:20;;;;;;;9.00;6.38;;;;;;;32.60;22.27;98708.16;5064770;28;20033;-79
2022/05/07 01:20:46;;;;;;;8.18;6.35;;;;;;;32.07;22.94;98711.34;5066598;28;20115;-79
2022/05/07 01:23:12;;;;;;;8.95;6.70;;;;;;;31.78;23.02;98704.53;5069477;28;20499;-78
2022/05/07 01:25:39;;;;;;;8.98;6.38;;;;;;;32.00;22.81;98708.81;5065486;28;20503;-79
2022/05/07 01:28:05;;;;;;;9.23;6.63;;;;;;;32.19;22.58;98705.97;5067996;28;20359;-79
2022/05/07 01:30:33;;;;;;;9.95;7.13;;;;;;;32.32;22.21;98701.72;5065030;28;20113;-78
2022/05/07 01:32:59;;;;;;;10.50;6.65;;;;;;;32.13;22.52;98700.16;5063107;28;20401;-79
2022/05/07 01:35:26;;;;;;;9.45;6.70;;;;;;;32.18;22.44;98705.19;5048324;28;20052;-79
2022/05/07 01:37:52;;;;;;;8.45;6.38;;;;;;;32.24;22.33;98691.91;5063623;28;20478;-78
2022/05/07 01:40:18;;;;;;;9.20;6.75;;;;;;;32.16;22.37;98702.03;5065273;28;20078;-79
2022/05/07 01:42:44;;;;;;;9.48;6.20;;;;;;;32.02;22.79;98708.38;5066412;28;20048;-78
2022/05/07 01:45:10;;;;;;;11.15;6.53;;;;;;;31.85;22.75;98699.34;5068286;28;20435;-79
2022/05/07 01:50:22;;;;;;;10.82;7.22;;;;;;;32.06;22.73;98704.09;5066725;28;20105;-78
2022/05/07 01:52:48;;;;;;;9.85;6.50;;;;;;;32.25;22.35;98698.41;5066044;28;20434;-78
2022/05/07 01:55:14;;;;;;;9.20;6.95;;;;;;;32.35;21.97;98702.81;5068809;28;20033;-78
2022/05/07 01:57:40;;;;;;;7.53;5.75;;;;;;;32.06;22.42;98704.09;5063795;28;20037;-78
2022/05/07 02:00:08;;;;;;;9.82;6.25;;;;;;;31.49;23.19;98702.13;5064755;28;20060;-78
2022/05/07 02:02:34;;;;;;;8.30;5.75;;;;;;;31.17;23.45;98702.63;5057264;28;20138;-79
2022/05/07 02:05:02;;;;;;;9.70;6.45;;;;;;;31.04;23.56;98693.47;5061460;28;20024;-78
2022/05/07 02:07:28;;;;;;;9.48;6.85;;;;;;;30.93;23.64;98695.91;5059955;28;20490;-78
2022/05/07 02:09:54;;;;;;;8.70;6.65;;;;;;;31.27;23.39;98695.75;5062866;28;20033;-78
2022/05/07 02:12:20;;;;;;;8.70;6.20;;;;;;;31.54;23.24;98695.03;5062486;28;20063;-78
2022/05/07 02:14:46;;;;;;;9.95;6.60;;;;;;;31.49;23.38;98701.31;5060346;28;20857;-78
2022/05/07 02:17:12;;;;;;;11.65;7.05;;;;;;;31.70;22.66;98701.19;5064831;28;20037;-78
2022/05/07 02:19:38;;;;;;;8.52;5.65;;;;;;;31.91;22.63;98705.16;5061859;28;20040;-78
2022/05/07 02:22:04;;;;;;;8.68;6.97;;;;;;;31.92;22.56;98703.91;5060005;28;20036;-79
2022/05/07 02:24:30;;;;;;;9.32;6.93;;;;;;;31.99;22.22;98704.41;5064282;28;20367;-78
2022/05/07 02:26:56;;;;;;;11.85;7.13;;;;;;;32.11;22.35;98705.53;5065354;28;20505;-78
2022/05/07 02:29:22;;;;;;;9.73;7.20;;;;;;;32.26;22.44;98709.28;5065373;28;20115;-79
2022/05/07 02:32:04;;;;;;;8.90;6.18;;;;;;;32.24;22.36;98705.34;5060473;28;20055;-78
2022/05/07 02:34:31;;;;;;;10.43;6.68;;;;;;;32.09;22.18;98708.81;5056810;28;20386;-78
2022/05/07 02:36:58;;;;;;;10.15;7.00;;;;;;;31.71;22.71;98713.34;5060398;28;20036;-78
2022/05/07 02:39:25;;;;;;;10.43;7.30;;;;;;;31.37;23.27;98709.47;5063016;28;20051;-78
2022/05/07 02:44:36;;;;;;;12.45;8.02;;;;;;;30.86;24.00;98704.69;5059354;28;20094;-78
2022/05/07 02:47:03;;;;;;;12.98;8.85;;;;;;;30.68;24.42;98713.91;5059882;28;20177;-78
2022/05/07 02:49:29;;;;;;;10.95;6.63;;;;;;;30.66;24.05;98716.41;5059710;28;20485;-78
2022/05/07 02:51:55;;;;;;;9.75;7.50;;;;;;;30.68;24.19;98706.19;5059437;28;20040;-78
2022/05/07 02:54:21;;;;;;;10.15;6.32;;;;;;;30.90;24.15;98706.16;5059326;28;20044;-78
2022/05/07 02:56:47;;;;;;;10.65;7.40;;;;;;;31.29;23.28;98705.38;5061308;28;20036;-78
2022/05/07 02:59:13;;;;;;;12.98;6.75;;;;;;;31.59;22.88;98706.56;5059673;28;20040;-78
2022/05/07 03:01:41;;;;;;;6.57;5.45;;;;;;;31.69;23.20;98711.00;5056780;28;20064;-78
2022/05/07 03:04:08;;;;;;;9.00;6.78;;;;;;;31.83;22.74;98710.38;5061642;28;20027;-78
2022/05/07 03:06:34;;;;;;;9.90;6.78;;;;;;;32.03;22.29;98712.78;5060845;28;20032;-78
2022/05/07 03:09:01;;;;;;;13.00;6.93;;;;;;;32.20;22.29;98710.41;5059194;28;20039;-78
2022/05/07 03:11:27;;;;;;;10.18;6.75;;;;;;;32.33;22.21;98713.84;5057243;28;20032;-78
2022/05/07 03:13:53;;;;;;;8.23;6.20;;;;;;;32.22;22.20;98705.03;5062849;28;20541;-78
2022/05/07 03:16:19;;;;;;;8.85;6.45;;;;;;;31.93;22.65;98714.00;5064579;28;20032;-78
2022/05/07 03:18:45;;;;;;;10.70;7.65;;;;;;;31.60;22.99;98716.63;5065147;28;20038;-78
2022/05/07 03:21:12;;;;;;;10.73;6.97;;;;;;;31.48;23.47;98711.13;5064192;28;20036;-78
2022/05/07 03:23:38;;;;;;;9.32;7.10;;;;;;;31.60;23.44;98713.03;5064501;28;20702;-78
2022/05/07 03:26:05;;;;;;;10.90;6.95;;;;;;;31.85;23.13;98716.38;5064708;28;20036;-78
2022/05/07 03:28:31;;;;;;;7.38;5.80;;;;;;;31.94;23.00;98718.44;5066391;28;20037;-78
2022/05/07 03:30:57;;;;;;;10.80;7.45;;;;;;;32.04;22.87;98712.28;5067838;28;20036;-78
2022/05/07 03:33:23;;;;;;;7.60;6.00;;;;;;;32.25;22.21;98715.44;5062078;28;20024;-78
2022/05/07 03:35:49;;;;;;;8.70;6.50;;;;;;;32.39;21.82;98714.81;5063544;28;20033;-78
2022/05/07 03:38:15;;;;;;;9.77;6.50;;;;;;;32.51;22.17;98723.16;5067455;28;20033;-78
2022/05/07 03:40:41;;;;;;;9.05;7.03;;;;;;;32.58;21.93;98727.75;5066574;28;20474;-78
2022/05/07 03:43:07;;;;;;;7.20;5.50;;;;;;;32.60;22.14;98728.06;5064178;28;20731;-78
2022/05/07 03:45:33;;;;;;;8.65;5.95;;;;;;;32.24;22.08;98728.88;5063483;28;20754;-78
2022/05/07 03:47:59;;;;;;;5.97;4.93;;;;;;;31.84;22.94;98726.16;5065755;28;20029;-78
2022/05/07 03:50:26;;;;;;;6.50;5.43;;;;;;;32.08;22.48;98726.34;5063362;28;20474;-78
2022/05/07 03:55:41;;;;;;;7.95;5.45;;;;;;;32.45;22.22;98732.78;5060226;28;20098;-79
2022/05/07 03:58:10;;;;;;;6.93;5.65;;;;;;;32.47;22.14;98724.56;5062214;28;20516;-78
2022/05/07 04:00:37;;;;;;;7.10;5.75;;;;;;;32.56;22.15;98724.56;5044731;28;20468;-78
2022/05/07 04:03:04;;;;;;;9.38;6.35;;;;;;;32.23;22.14;98727.28;5063785;28;20024;-78
2022/05/07 04:05:30;;;;;;;7.55;5.93;;;;;;;31.68;23.12;98728.50;5064160;28;20028;-78
2022/05/07 04:07:56;;;;;;;6.20;5.20;;;;;;;31.41;23.31;98726.38;5062671;28;20814;-80
2022/05/07 04:10:22;;;;;;;7.20;5.97;;;;;;;31.69;23.29;98721.56;5060021;28;20028;-81
2022/05/07 04:12:51;;;;;;;9.30;6.72;;;;;;;31.60;23.39;98730.84;5061255;28;20040;-81
2022/05/07 04:15:17;;;;;;;8.57;7.00;;;;;;;31.08;23.83;98734.59;5062602;28;20485;-81
2022/05/07 04:17:44;;;;;;;8.07;5.32;;;;;;;31.09;23.91;98729.69;5062572;28;20043;-81
2022/05/07 04:20:11;;;;;;;7.30;5.28;;;;;;;31.63;23.48;98729.09;5063373;28;20386;-81
2022/05/07 04:22:37;;;;;;;10.75;7.38;;;;;;;32.05;23.14;98730.13;5041578;28;20036;-81
2022/05/07 04:25:05;;;;;;;9.98;7.68;;;;;;;32.37;22.72;98728.72;5065547;28;20387;-81
2022/05/07 04:27:31;;;;;;;10.40;7.38;;;;;;;32.48;22.43;98721.28;5064487;28;20374;-81
2022/05/07 04:29:57;;;;;;;8.57;6.95;;;;;;;32.12;22.92;98731.84;5066593;28;20134;-81
2022/05/07 04:32:24;;;;;;;9.25;6.57;;;;;;;31.70;23.76;98732.44;5066606;28;20033;-81
2022/05/07 04:34:51;;;;;;;9.20;6.82;;;;;;;31.33;24.36;98723.03;5064190;28;20054;-81
2022/05/07 04:37:17;;;;;;;9.50;7.22;;;;;;;31.05;24.33;98718.50;5067584;28;20043;-81
2022/05/07 04:39:43;;;;;;;11.13;7.90;;;;;;;30.94;24.66;98723.03;5064104;28;20040;-81
2022/05/07 04:42:09;;;;;;;9.57;7.05;;;;;;;30.77;25.08;98728.91;5068677;28;20056;-81
2022/05/07 04:44:35;;;;;;;8.13;6.65;;;;;;;30.75;25.28;98724.97;5069859;28;20406;-81
2022/05/07 04:47:02;;;;;;;11.88;7.85;;;;;;;30.82;24.95;98724.69;5068331;28;20044;-79
2022/05/07 04:49:28;;;;;;;10.48;7.68;;;;;;;30.84;25.26;98722.16;5065094;28;20478;-79
2022/05/07 04:51:54;;;;;;;12.93;8.63;;;;;;;30.72;25.34;98723.03;5068326;28;20056;-79
2022/05/07 04:54:20;;;;;;;9.25;6.95;;;;;;;30.77;25.46;98717.56;5067503;28;20032;-80
2022/05/07 04:56:51;;;;;;;9.48;7.43;;;;;;;30.89;25.02;98720.81;5066495;28;21398;-79
2022/05/07 04:59:19;;;;;;;8.98;6.75;;;;;;;31.27;25.13;98722.03;5069200;28;20138;-79
2022/05/07 05:01:46;;;;;;;9.75;7.28;;;;;;;31.87;24.36;98722.38;5070061;28;20041;-79
2022/05/07 05:04:13;;;;;;;8.13;6.65;;;;;;;32.40;23.80;98719.22;5070380;28;20515;-79
2022/05/07 05:06:39;;;;;;;8.77;6.85;;;;;;;32.71;23.44;98722.66;5066133;28;20058;-79
2022/05/07 05:09:07;;;;;;;7.43;6.38;;;;;;;32.92;23.23;98738.72;5069574;28;20036;-79
2022/05/07 05:11:34;;;;;;;8.00;6.07;;;;;;;33.08;23.34;98734.72;5065921;28;20489;-79
2022/05/07 05:14:00;;;;;;;13.02;7.50;;;;;;;33.18;22.87;98742.75;5067087;28;20376;-79
2022/05/07 05:16:27;;;;;;;7.95;6.47;;;;;;;33.25;23.13;98742.41;5067717;28;20033;-79
2022/05/07 05:18:53;;;;;;;7.85;5.72;;;;;;;33.33;22.73;98737.13;5052263;28;20498;-80
2022/05/07 05:21:19;;;;;;;7.72;5.63;;;;;;;33.38;23.14;98745.81;5057732;28;20029;-80
2022/05/07 05:23:46;;;;;;;7.75;5.97;;;;;;;33.41;22.73;98750.56;5066781;28;20091;-79
2022/05/07 05:26:15;;;;;;;8.80;6.57;;;;;;;33.45;22.54;98747.53;5068461;28;20032;-80
2022/05/07 05:28:43;;;;;;;8.55;6.40;;;;;;;33.30;22.88;98749.50;5067985;28;20608;-79
2022/05/07 05:31:09;;;;;;;8.65;5.97;;;;;;;33.26;23.14;98754.56;5064696;28;20114;-80
2022/05/07 05:33:35;;;;;;;8.20;6.20;;;;;;;33.37;23.45;98757.69;5063337;28;20067;-79
2022/05/07 05:36:02;;;;;;;9.43;6.55;;;;;;;33.46;23.30;98754.00;5064558;28;20032;-79
2022/05/07 05:38:28;;;;;;;9.70;6.05;;;;;;;33.58;23.23;98753.81;5064009;28;20037;-79
2022/05/07 05:40:54;;;;;;;9.00;6.22;;;;;;;33.47;23.25;98759.22;5066606;28;20059;-80
2022/05/07 05:43:20;;;;;;;7.47;5.53;;;;;;;33.44;23.49;98757.34;5044963;28;20493;-81
2022/05/07 05:45:46;;;;;;;8.60;6.18;;;;;;;33.51;23.52;98759.06;5065722;28;20052;-81
2022/05/07 05:48:13;;;;;;;8.20;6.03;;;;;;;33.40;23.95;98763.22;5063411;28;20032;-80
2022/05/07 05:50:39;;;;;;;7.47;6.43;;;;;;;33.49;23.31;98761.59;5062754;28;20429;-80
2022/05/07 05:53:06;;;;;;;9.38;6.15;;;;;;;33.67;23.23;98761.53;5067358;28;20037;-80
2022/05/07 05:55:33;;;;;;;8.05;6.03;;;;;;;33.83;23.28;98763.94;5063582;28;20035;-80
2022/05/07 05:57:59;;;;;;;9.52;6.18;;;;;;;33.98;23.28;98762.72;5061243;28;20040;-80
2022/05/07 06:00:25;;;;;;;7.57;5.85;;;;;;;34.11;22.84;98771.06;5062211;28;20055;-80
2022/05/07 06:02:51;;;;;;;8.63;5.63;;;;;;;34.23;22.90;98774.94;5037041;28;20025;-82
2022/05/07 06:05:18;;;;;;;7.00;5.18;;;;;;;34.28;22.92;98768.56;5058217;28;20029;-79
2022/05/07 06:07:44;;;;;;;7.03;5.72;;;;;;;34.35;22.45;98773.88;5058584;28;20111;-80
2022/05/07 06:10:10;;;;;;;8.70;6.00;;;;;;;34.30;22.54;98777.41;5063178;28;20028;-80
2022/05/07 06:12:36;;;;;;;8.13;6.00;;;;;;;33.94;23.01;98775.56;5063928;28;20075;-80
2022/05/07 06:15:04;;;;;;;8.95;6.20;;;;;;;33.96;23.34;98773.03;5063497;28;20047;-82
2022/05/07 06:17:30;;;;;;;8.52;6.05;;;;;;;33.95;23.22;98772.25;5059660;28;20047;-80
2022/05/07 06:19:56;;;;;;;8.75;6.57;;;;;;;34.22;22.68;98773.34;5063287;28;20040;-80
2022/05/07 06:22:25;;;;;;;8.07;5.60;;;;;;;34.41;22.53;98774.75;5061166;28;20049;-81
2022/05/07 06:27:36;;;;;;;9.88;6.60;;;;;;;34.58;22.58;98785.25;5059127;28;20402;-80
2022/05/07 06:30:04;;;;;;;8.50;6.00;;;;;;;34.64;23.18;98788.19;5059698;28;20040;-80
2022/05/07 06:32:31;;;;;;;7.47;5.93;;;;;;;34.78;22.07;98789.50;5042206;28;20477;-80
2022/05/07 06:34:57;;;;;;;11.55;7.43;;;;;;;34.86;21.47;98782.13;5059797;28;20037;-80
2022/05/07 06:37:23;;;;;;;7.43;6.22;;;;;;;34.95;22.25;98779.16;5059767;28;20033;-80
2022/05/07 06:39:49;;;;;;;6.70;5.55;;;;;;;35.13;21.50;98782.63;5057867;28;20041;-80
2022/05/07 06:42:16;;;;;;;7.72;6.22;;;;;;;34.87;21.18;98783.72;5060667;28;20060;-80
2022/05/07 06:44:43;;;;;;;10.27;6.97;;;;;;;34.05;20.94;98776.63;5062570;28;20132;-80
2022/05/07 06:47:09;;;;;;;8.15;5.82;;;;;;;33.66;22.02;98779.88;5063017;28;20060;-80
2022/05/07 06:49:37;;;;;;;6.05;5.00;;;;;;;33.27;21.58;98779.72;5060497;28;20549;-80
2022/05/07 06:52:04;;;;;;;8.98;5.45;;;;;;;33.03;21.36;98784.56;5056658;28;20189;-80
2022/05/07 06:54:30;;;;;;;6.80;5.13;;;;;;;32.77;21.82;98782.56;5048867;28;20067;-80
2022/05/07 06:56:56;;;;;;;8.13;6.47;;;;;;;31.69;21.81;98782.00;5059390;28;20041;-80
2022/05/07 06:59:22;;;;;;;6.80;4.55;;;;;;;31.94;22.11;98786.59;5060186;28;20095;-80
2022/05/07 07:01:48;;;;;;;7.88;5.68;;;;;;;32.35;21.86;98779.56;5042910;28;20056;-80
2022/05/07 07:04:15;;;;;;;7.95;4.55;;;;;;;32.36;21.87;98781.13;5059953;28;20044;-80
2022/05/07 07:06:41;;;;;;;7.45;5.38;;;;;;;32.06;22.08;98782.88;5060901;28;20482;-79
2022/05/07 07:09:07;;;;;;;5.90;3.65;;;;;;;32.43;21.51;98792.19;5041852;28;20575;-80
2022/05/07 07:11:37;;;;;;;6.18;5.00;;;;;;;33.05;20.85;98784.84;5048950;28;20506;-79
2022/05/07 07:14:03;;;;;;;8.48;5.25;;;;;;;32.43;21.46;98786.50;5062628;28;20041;-80
2022/05/07 07:16:30;;;;;;;7.95;4.75;;;;;;;31.99;21.75;98786.81;5056931;28;20040;-80
2022/05/07 07:18:56;;;;;;;6.35;4.40;;;;;;;31.74;21.84;98789.88;5057080;28;20025;-80
2022/05/07 07:21:22;;;;;;;5.38;4.05;;;;;;;32.16;21.32;98789.34;5060143;28;20626;-80
2022/05/07 07:23:48;;;;;;;6.57;4.97;;;;;;;31.87;21.17;98790.53;5040084;28;20044;-79
2022/05/07 07:26:14;;;;;;;8.20;5.28;;;;;;;32.75;21.22;98785.84;5061187;28;20036;-80
2022/05/07 07:28:40;;;;;;;5.05;3.85;;;;;;;32.95;20.48;98788.97;5061334;28;20028;-79
2022/05/07 07:31:08;;;;;;;6.07;4.00;;;;;;;31.99;20.86;98792.50;5063166;28;20028;-80
2022/05/07 07:33:35;;;;;;;5.38;4.32;;;;;;;31.44;20.89;98782.22;5062949;28;20539;-80
2022/05/07 07:36:01;;;;;;;6.75;4.15;;;;;;;31.27;21.39;98795.06;5057663;28;20032;-80
2022/05/07 07:38:29;;;;;;;7.47;4.07;;;;;;;31.07;20.81;98788.97;5059383;28;20032;-79
2022/05/07 07:40:55;;;;;;;4.95;3.72;;;;;;;31.73;20.60;98784.66;5061299;28;20036;-79
2022/05/07 07:43:21;;;;;;;5.53;3.72;;;;;;;32.23;21.22;98789.03;5060224;28;20033;-79
2022/05/07 07:48:33;;;;;;;3.60;2.30;;;;;;;32.11;20.20;98799.28;5062924;28;20093;-80
2022/05/07 07:50:59;;;;;;;5.28;2.70;;;;;;;32.82;19.36;98793.25;5065808;28;20082;-81
2022/05/07 07:53:26;;;;;;;2.92;2.00;;;;;;;32.77;18.96;98797.53;5064101;28;20484;-81
2022/05/07 07:55:53;;;;;;;3.17;2.42;;;;;;;32.31;19.27;98795.97;5060641;28;20056;-79
2022/05/07 07:58:19;;;;;;;2.78;2.10;;;;;;;31.66;19.33;98802.00;5061441;28;20028;-81
2022/05/07 08:00:45;;;;;;;3.35;1.98;;;;;;;32.21;19.14;98806.53;5064683;28;20028;-81
2022/05/07 08:03:16;;;;;;;2.28;2.08;;;;;;;32.80;18.30;98795.78;5067356;28;20033;-80
2022/05/07 08:05:45;;;;;;;3.35;2.53;;;;;;;32.97;17.79;98797.81;5066941;28;20039;-78
2022/05/07 08:13:48;;;;;;;2.30;1.30;;;;;;;33.08;19.19;98797.34;5064056;28;20055;-79
2022/05/07 08:16:15;;;;;;;3.65;1.90;;;;;;;33.20;18.61;98800.00;5066091;28;20037;-80
2022/05/07 08:18:42;;;;;;;2.90;2.00;;;;;;;33.18;18.20;98793.19;5062928;28;20406;-78
2022/05/07 08:21:09;;;;;;;2.95;2.15;;;;;;;32.07;18.86;98804.31;5064626;28;20044;-78
2022/05/07 08:23:38;;;;;;;2.88;1.98;;;;;;;31.96;19.48;98801.94;5066297;28;20397;-78
2022/05/07 08:26:06;;;;;;;2.67;1.52;;;;;;;31.70;19.68;98794.13;5063920;28;20033;-78
2022/05/07 08:28:33;;;;;;;3.55;2.10;;;;;;;31.74;18.78;98801.22;5043647;28;20043;-78
2022/05/07 08:31:00;;;;;;;2.90;1.83;;;;;;;31.32;19.24;98794.47;5066815;28;20037;-78
2022/05/07 08:33:27;;;;;;;2.13;1.65;;;;;;;32.17;19.09;98793.75;5062900;28;20500;-78
2022/05/07 08:35:53;;;;;;;3.10;2.05;;;;;;;31.55;19.45;98798.81;5064625;28;20025;-78
2022/05/07 08:38:19;;;;;;;2.05;1.67;;;;;;;31.33;19.24;98802.50;5060788;28;20040;-78
2022/05/07 08:40:45;;;;;;;2.40;1.95;;;;;;;31.84;18.45;98802.03;5065261;28;20044;-79
2022/05/07 08:43:12;;;;;;;2.35;1.45;;;;;;;31.84;18.56;98804.88;5066591;28;20028;-78
2022/05/07 08:45:41;;;;;;;4.15;2.20;;;;;;;30.41;20.55;98813.69;5065675;28;20045;-78
2022/05/07 08:48:08;;;;;;;4.30;1.93;;;;;;;31.73;19.58;98804.53;5066511;28;20036;-78
2022/05/07 08:50:35;;;;;;;3.08;1.88;;;;;;;32.95;18.26;98806.06;5064259;28;20044;-78
2022/05/07 08:53:02;;;;;;;4.32;1.58;;;;;;;33.80;18.05;98801.94;5063251;28;20090;-78
2022/05/07 08:55:28;;;;;;;5.25;1.50;;;;;;;33.69;17.46;98805.34;5065184;28;20028;-78
2022/05/07 08:57:55;;;;;;;3.05;1.92;;;;;;;33.20;18.22;98808.53;5061329;28;20115;-78
2022/05/07 09:00:26;;;;;;;3.17;1.80;;;;;;;31.01;20.50;98814.31;5055546;28;20506;-78
2022/05/07 09:02:58;;;;;;;2.28;1.80;;;;;;;30.63;19.89;98814.50;5059672;28;20531;-78
2022/05/07 09:05:38;;;;;;;3.40;2.10;;;;;;;30.55;20.28;98812.41;5061668;28;20036;-78
2022/05/07 09:08:12;;;;;;;3.78;1.80;;;;;;;31.63;18.81;98809.41;5066120;28;20021;-80
2022/05/07 09:10:39;;;;;;;2.42;1.40;;;;;;;32.63;18.97;98812.41;5048215;28;20126;-80
2022/05/07 09:13:11;;;;;;;2.70;1.50;;;;;;;32.70;19.31;98809.25;5065557;28;20052;-80
2022/05/07 09:15:56;;;;;;;2.88;1.50;;;;;;;30.70;18.75;98810.63;5066571;28;20387;-80
2022/05/07 09:18:25;;;;;;;6.85;2.72;;;;;;;30.23;20.76;98818.38;5065728;28;20534;-80
2022/05/07 09:21:16;;;;;;;3.70;2.10;;;;;;;30.64;20.62;98818.91;5067751;28;20040;-78
2022/05/07 09:23:46;;;;;;;2.97;1.65;;;;;;;31.71;19.07;98804.22;5067159;28;20036;-79
2022/05/07 09:26:24;;;;;;;7.60;2.40;;;;;;;31.47;17.83;98809.66;5064813;28;20039;-80
2022/05/07 09:28:50;;;;;;;2.67;1.85;;;;;;;31.23;19.86;98811.41;5065050;28;20120;-79
2022/05/07 09:31:23;;;;;;;1.70;1.50;;;;;;;30.97;17.86;98810.81;5068330;28;20520;-79
2022/05/07 09:33:49;;;;;;;2.05;1.30;;;;;;;31.44;17.67;98813.44;5065489;28;20051;-79
2022/05/07 09:36:15;;;;;;;5.18;1.55;;;;;;;32.35;17.02;98797.38;5067223;28;20028;-79
2022/05/07 09:38:43;;;;;;;1.80;1.10;;;;;;;33.40;17.43;98808.75;5066181;28;20040;-79
2022/05/07 09:41:19;;;;;;;2.30;1.77;;;;;;;31.70;19.01;98802.63;5064702;28;20033;-79
2022/05/07 09:43:49;;;;;;;3.47;1.73;;;;;;;31.71;19.53;98804.22;5045270;28;20037;-78
2022/05/07 09:46:17;;;;;;;5.18;1.40;;;;;;;32.06;17.39;98799.91;5068415;28;20028;-79
2022/05/07 09:48:46;;;;;;;3.50;1.52;;;;;;;31.67;16.82;98804.34;5065595;28;20468;-79
2022/05/07 09:51:12;;;;;;;2.22;1.35;;;;;;;31.90;17.07;98795.25;5065593;28;20025;-79
2022/05/07 09:59:11;;;;;;;3.70;2.03;;;;;;;31.47;17.99;98794.69;5063671;28;20082;-79
2022/05/07 10:01:56;;;;;;;2.97;1.20;;;;;;;33.38;16.32;98787.72;5064766;28;20089;-79
2022/05/07 10:04:34;;;;;;;4.15;1.35;;;;;;;34.37;16.33;98791.28;5064446;28;20033;-79
2022/05/07 10:07:37;;;;;;;3.63;2.00;;;;;;;32.22;16.41;98784.59;5061120;28;20029;-79
2022/05/07 10:10:29;;;;;;;2.70;1.67;;;;;;;31.28;17.81;98786.06;5061717;28;20163;-80
2022/05/07 10:12:59;;;;;;;1.85;1.45;;;;;;;31.16;19.00;98777.66;5066704;28;20028;-78
2022/05/07 10:15:26;;;;;;;7.78;2.17;;;;;;;32.06;18.13;98785.72;5066382;28;20032;-79
2022/05/07 10:18:02;;;;;;;2.10;1.60;;;;;;;32.40;18.00;98776.84;5068217;28;20452;-79
2022/05/07 10:20:43;;;;;;;6.00;1.63;;;;;;;32.86;17.27;98788.97;5069220;28;20036;-79
2022/05/07 10:23:13;;;;;;;4.10;1.92;;;;;;;31.47;18.21;98786.16;5062085;28;20123;-78
2022/05/07 10:25:42;;;;;;;2.70;2.28;;;;;;;31.37;17.72;98780.44;5064369;28;20044;-78
2022/05/07 10:28:17;;;;;;;2.45;1.25;;;;;;;32.47;17.28;98776.53;5066146;28;20063;-77
2022/05/07 10:30:51;;;;;;;3.10;2.15;;;;;;;32.32;17.46;98769.94;5066673;28;20082;-78
2022/05/07 10:33:18;;;;;;;3.75;1.90;;;;;;;32.02;17.08;98777.31;5067859;28;20309;-78
2022/05/07 10:35:55;;;;;;;3.67;1.67;;;;;;;32.42;17.44;98770.69;5063365;28;20382;-78
2022/05/07 10:38:24;;;;;;;3.05;1.80;;;;;;;31.75;18.15;98757.38;5064621;28;20047;-78
2022/05/07 10:41:01;;;;;;;1.60;1.40;;;;;;;32.33;18.11;98768.66;5065016;28;20036;-77
2022/05/07 10:43:37;;;;;;;2.15;1.40;;;;;;;32.08;17.12;98769.78;5067539;28;20761;-77
2022/05/07 10:46:12;;;;;;;2.00;1.77;;;;;;;31.93;17.48;98765.91;5066884;28;20028;-77
2022/05/07 10:49:06;;;;;;;2.90;1.33;;;;;;;33.56;15.54;98764.13;5066771;28;20180;-77
2022/05/07 10:51:37;;;;;;;2.15;1.40;;;;;;;33.84;16.21;98765.53;5070179;28;20036;-77
2022/05/07 10:54:22;;;;;;;1.80;1.30;;;;;;;34.05;14.97;98767.31;5069338;28;20067;-77
2022/05/07 10:56:56;;;;;;;3.38;1.52;;;;;;;33.26;16.14;98769.59;5066229;28;20048;-77
2022/05/07 10:59:24;;;;;;;4.13;1.20;;;;;;;33.39;16.05;98758.81;5054453;28;20036;-78
2022/05/07 11:02:05;;;;;;;2.08;1.70;;;;;;;32.99;16.47;98757.50;5065748;28;20051;-78
2022/05/07 11:04:40;;;;;;;1.23;1.10;;;;;;;33.87;16.18;98758.84;5052757;28;20168;-79
2022/05/07 11:07:06;;;;;;;1.30;1.00;;;;;;;34.29;16.00;98750.94;5069533;28;20504;-79
2022/05/07 11:09:32;;;;;;;4.32;2.08;;;;;;;31.59;17.85;98754.81;5067243;28;20789;-79
2022/05/07 11:11:59;;;;;;;4.40;1.55;;;;;;;31.34;19.93;98755.03;5067877;28;20025;-79
2022/05/07 11:14:25;;;;;;;2.83;1.42;;;;;;;31.90;18.37;98755.50;5069068;28;20052;-79
2022/05/07 11:16:53;;;;;;;2.47;1.45;;;;;;;32.77;16.33;98751.25;5065568;28;20082;-78
2022/05/07 11:19:26;;;;;;;1.83;1.30;;;;;;;33.64;16.39;98757.56;5068454;28;20040;-78
2022/05/07 11:21:54;;;;;;;1.88;1.00;;;;;;;34.01;15.97;98755.25;5069651;28;20028;-78
2022/05/07 11:24:21;;;;;;;3.50;1.70;;;;;;;32.63;16.63;98749.84;5068496;28;20459;-78
2022/05/07 11:26:53;;;;;;;3.13;1.63;;;;;;;32.08;17.25;98754.75;5064414;28;20093;-78
2022/05/07 11:29:20;;;;;;;2.00;1.30;;;;;;;32.91;17.60;98748.50;5069498;28;20374;-77
2022/05/07 11:32:04;;;;;;;2.67;1.92;;;;;;;31.54;16.91;98752.59;5070980;28;20178;-78
2022/05/07 11:34:38;;;;;;;1.38;1.27;;;;;;;33.53;16.53;98748.78;5065892;28;20422;-77
2022/05/07 11:37:19;;;;;;;3.17;1.23;;;;;;;35.27;15.95;98746.78;5070925;28;20033;-78
2022/05/07 11:39:51;;;;;;;2.42;1.23;;;;;;;36.19;15.61;98744.19;5067425;28;20112;-77
2022/05/07 11:42:32;;;;;;;4.05;1.40;;;;;;;35.69;14.11;98746.38;5067414;28;20107;-78
2022/05/07 11:47:56;;;;;;;2.28;1.10;;;;;;;34.86;15.89;98750.72;5064335;28;20047;-78
2022/05/07 11:50:27;;;;;;;2.03;1.08;;;;;;;35.69;14.76;98747.16;5056839;28;21602;-78
2022/05/07 11:52:54;;;;;;;0.82;0.80;;;;;;;35.98;15.00;98747.09;5062301;28;20401;-78
2022/05/07 11:55:29;;;;;;;1.00;0.80;;;;;;;36.36;14.51;98739.47;5063290;28;20478;-78
2022/05/07 11:57:56;;;;;;;2.15;1.15;;;;;;;36.89;15.08;98750.44;5065723;28;20037;-80
2022/05/07 12:00:25;;;;;;;1.65;0.60;;;;;;;37.08;14.38;98737.34;5065772;28;20208;-82
2022/05/07 12:03:03;;;;;;;2.83;1.33;;;;;;;36.53;14.64;98743.31;5064246;28;20074;-81
2022/05/07 12:05:42;;;;;;;1.75;0.85;;;;;;;35.83;15.29;98734.88;5068233;28;21586;-82
2022/05/07 12:08:16;;;;;;;1.80;1.05;;;;;;;36.45;14.88;98737.28;5066760;28;20028;-82
2022/05/07 12:10:43;;;;;;;2.22;0.85;;;;;;;36.68;14.16;98723.97;5045026;28;20310;-81